createdAt,value
2023-05-14T00:02:26.630Z,11.33
2023-05-14T00:04:56.283Z,11.33
2023-05-14T00:07:30.850Z,11.20
2023-05-14T00:09:59.249Z,11.34
2023-05-14T00:12:27.843Z,11.35
2023-05-14T00:14:56.036Z,11.26
2023-05-14T00:17:24.525Z,11.33
2023-05-14T00:19:52.684Z,11.29
2023-05-14T00:22:22.352Z,11.33
2023-05-14T00:24:50.578Z,11.34
2023-05-14T00:27:18.754Z,11.38
2023-05-14T00:29:46.915Z,11.36
2023-05-14T00:32:15.037Z,11.35
2023-05-14T00:34:43.266Z,11.33
2023-05-14T00:37:11.419Z,11.34
2023-05-14T00:39:41.000Z,11.39
2023-05-14T00:42:09.365Z,10.99
2023-05-14T00:44:37.604Z,11.39
2023-05-14T00:47:06.525Z,11.41
2023-05-14T00:49:35.346Z,11.37
2023-05-14T00:52:03.996Z,11.31
2023-05-14T00:54:32.850Z,11.07
2023-05-14T00:57:03.286Z,11.42
2023-05-14T00:59:31.573Z,11.18
2023-05-14T01:01:59.738Z,11.32
2023-05-14T01:04:28.265Z,10.89
2023-05-14T01:07:08.381Z,10.96
2023-05-14T01:09:43.949Z,11.29
2023-05-14T01:12:20.952Z,11.40
2023-05-14T01:14:56.269Z,11.41
2023-05-14T01:17:28.305Z,11.41
2023-05-14T01:19:56.901Z,11.41
2023-05-14T01:22:26.513Z,11.32
2023-05-14T01:24:54.742Z,11.15
2023-05-14T01:27:28.797Z,11.38
2023-05-14T01:30:04.548Z,11.19
2023-05-14T01:32:34.976Z,11.38
2023-05-14T01:35:03.894Z,10.89
2023-05-14T01:37:34.258Z,11.23
2023-05-14T01:40:03.789Z,11.40
2023-05-14T01:42:32.727Z,11.38
2023-05-14T01:45:01.216Z,11.01
2023-05-14T01:47:29.588Z,11.22
2023-05-14T01:49:57.800Z,11.37
2023-05-14T01:52:25.977Z,11.37
2023-05-14T01:54:55.650Z,11.37
2023-05-14T01:57:23.960Z,11.34
2023-05-14T01:59:52.248Z,11.46
2023-05-14T02:02:20.465Z,11.40
2023-05-14T02:04:48.669Z,10.58
2023-05-14T02:07:16.938Z,11.35
2023-05-14T02:09:45.227Z,11.34
2023-05-14T02:12:14.859Z,11.32
2023-05-14T02:14:43.095Z,11.27
2023-05-14T02:17:11.253Z,11.44
2023-05-14T02:19:39.412Z,11.49
2023-05-14T02:22:07.607Z,11.43
2023-05-14T02:24:35.841Z,11.28
2023-05-14T02:27:04.026Z,11.35
2023-05-14T02:29:33.669Z,11.34
2023-05-14T02:32:01.923Z,11.38
2023-05-14T02:34:30.103Z,11.36
2023-05-14T02:36:58.267Z,11.07
2023-05-14T02:39:26.499Z,11.06
2023-05-14T02:41:54.868Z,11.31
2023-05-14T02:44:23.054Z,11.32
2023-05-14T02:46:53.144Z,11.33
2023-05-14T02:49:21.580Z,11.35
2023-05-14T02:51:49.802Z,11.30
2023-05-14T02:54:18.031Z,11.35
2023-05-14T02:56:46.234Z,11.35
2023-05-14T02:59:14.606Z,11.08
2023-05-14T03:01:43.410Z,11.35
2023-05-14T03:04:13.595Z,11.18
2023-05-14T03:06:41.897Z,11.29
2023-05-14T03:09:10.232Z,11.32
2023-05-14T03:11:38.545Z,11.33
2023-05-14T03:14:06.794Z,11.40
2023-05-14T03:16:35.023Z,11.40
2023-05-14T03:19:04.091Z,11.35
2023-05-14T03:21:33.818Z,11.34
2023-05-14T03:24:02.013Z,11.35
2023-05-14T03:26:30.221Z,11.38
2023-05-14T03:28:58.403Z,11.16
2023-05-14T03:31:26.943Z,11.30
2023-05-14T03:33:55.182Z,11.28
2023-05-14T03:36:23.395Z,11.16
2023-05-14T03:38:53.029Z,11.23
2023-05-14T03:41:22.029Z,11.26
2023-05-14T03:43:50.214Z,11.17
2023-05-14T03:46:18.391Z,11.28
2023-05-14T03:48:46.656Z,11.27
2023-05-14T03:51:14.922Z,11.27
2023-05-14T03:53:43.145Z,11.18
2023-05-14T03:56:12.691Z,11.18
2023-05-14T03:58:40.960Z,11.21
2023-05-14T04:01:09.188Z,11.30
2023-05-14T04:03:37.632Z,11.29
2023-05-14T04:06:06.395Z,11.17
2023-05-14T04:08:34.498Z,11.27
2023-05-14T04:11:02.647Z,11.15
2023-05-14T04:13:32.428Z,11.30
2023-05-14T04:16:00.741Z,11.11
2023-05-14T04:18:28.990Z,11.24
2023-05-14T04:20:57.183Z,11.29
2023-05-14T04:23:25.297Z,11.28
2023-05-14T04:25:53.532Z,11.32
2023-05-14T04:28:21.712Z,11.25
2023-05-14T04:30:51.973Z,11.30
2023-05-14T04:33:20.120Z,11.33
2023-05-14T04:35:48.551Z,10.79
2023-05-14T04:38:16.738Z,11.31
2023-05-14T04:40:44.938Z,11.40
2023-05-14T04:43:13.187Z,11.42
2023-05-14T04:45:43.234Z,11.39
2023-05-14T04:48:12.812Z,11.34
2023-05-14T04:50:40.975Z,11.29
2023-05-14T04:53:09.171Z,11.35
2023-05-14T04:55:37.479Z,11.37
2023-05-14T04:58:05.684Z,11.30
2023-05-14T05:00:34.331Z,11.34
2023-05-14T05:03:02.594Z,11.38
2023-05-14T05:05:32.451Z,11.34
2023-05-14T05:08:00.596Z,11.31
2023-05-14T05:10:28.794Z,11.37
2023-05-14T05:12:57.029Z,11.38
2023-05-14T05:15:26.582Z,11.26
2023-05-14T05:17:55.073Z,11.35
2023-05-14T05:20:23.649Z,11.38
2023-05-14T05:22:53.454Z,11.34
2023-05-14T05:25:21.723Z,11.35
2023-05-14T05:27:50.115Z,11.37
2023-05-14T05:30:18.363Z,11.36
2023-05-14T05:32:46.782Z,11.38
2023-05-14T05:35:15.045Z,11.29
2023-05-14T05:37:45.363Z,11.38
2023-05-14T05:40:15.940Z,11.41
2023-05-14T05:42:44.130Z,11.44
2023-05-14T05:45:12.678Z,11.41
2023-05-14T05:47:41.087Z,11.33
2023-05-14T05:50:10.745Z,10.91
2023-05-14T05:52:39.258Z,11.45
2023-05-14T05:55:08.197Z,11.43
2023-05-14T05:57:37.829Z,11.42
2023-05-14T06:00:13.157Z,11.45
2023-05-14T06:02:42.047Z,11.38
2023-05-14T06:05:11.676Z,11.39
2023-05-14T06:07:40.179Z,11.46
2023-05-14T06:10:09.521Z,11.49
2023-05-14T06:12:39.179Z,11.49
2023-05-14T06:15:08.559Z,11.49
2023-05-14T06:17:36.795Z,11.52
2023-05-14T06:20:08.065Z,11.55
2023-05-14T06:22:36.513Z,10.99
2023-05-14T06:25:05.236Z,11.02
2023-05-14T06:27:33.549Z,11.41
2023-05-14T06:30:03.302Z,11.53
2023-05-14T06:32:31.511Z,11.66
2023-05-14T06:34:59.667Z,11.69
2023-05-14T06:37:29.091Z,11.67
2023-05-14T06:39:58.053Z,11.68
2023-05-14T06:42:26.536Z,11.69
2023-05-14T06:44:54.783Z,11.70
2023-05-14T06:47:24.643Z,11.78
2023-05-14T06:49:52.887Z,11.80
2023-05-14T06:52:21.098Z,11.61
2023-05-14T06:54:49.314Z,11.60
2023-05-14T06:57:17.559Z,11.75
2023-05-14T06:59:45.730Z,11.75
2023-05-14T07:02:13.973Z,11.32
2023-05-14T07:04:43.715Z,11.54
2023-05-14T07:07:15.515Z,11.78
2023-05-14T07:09:43.780Z,11.51
2023-05-14T07:12:12.052Z,11.52
2023-05-14T07:14:40.299Z,11.51
2023-05-14T07:17:08.599Z,11.39
2023-05-14T07:19:36.871Z,11.68
2023-05-14T07:22:06.648Z,11.70
2023-05-14T07:24:34.878Z,11.56
2023-05-14T07:27:03.132Z,11.69
2023-05-14T07:29:31.415Z,11.68
2023-05-14T07:31:59.645Z,11.54
2023-05-14T07:34:27.957Z,11.68
2023-05-14T07:36:56.370Z,11.21
2023-05-14T07:39:26.079Z,11.28
2023-05-14T07:41:55.002Z,11.88
2023-05-14T07:44:23.328Z,11.79
2023-05-14T07:46:51.622Z,11.58
2023-05-14T07:49:20.016Z,11.92
2023-05-14T07:51:48.348Z,11.59
2023-05-14T07:54:16.866Z,11.90
2023-05-14T07:56:46.563Z,11.85
2023-05-14T07:59:14.834Z,11.93
2023-05-14T08:01:43.260Z,12.03
2023-05-14T08:04:12.150Z,11.77
2023-05-14T08:06:40.571Z,11.80
2023-05-14T08:09:08.825Z,11.97
2023-05-14T08:11:37.124Z,11.98
2023-05-14T08:14:06.859Z,12.01
2023-05-14T08:16:35.301Z,10.95
2023-05-14T08:19:03.627Z,11.98
2023-05-14T08:21:31.951Z,11.96
2023-05-14T08:24:00.634Z,11.65
2023-05-14T08:26:28.901Z,12.00
2023-05-14T08:28:57.161Z,11.92
2023-05-14T08:31:27.058Z,11.29
2023-05-14T08:33:55.933Z,11.86
2023-05-14T08:36:24.182Z,11.99
2023-05-14T08:38:52.478Z,11.96
2023-05-14T08:41:21.442Z,12.06
2023-05-14T08:43:59.329Z,12.07
2023-05-14T08:46:31.192Z,11.92
2023-05-14T08:49:09.002Z,11.52
2023-05-14T08:51:37.750Z,11.92
2023-05-14T08:54:07.297Z,12.03
2023-05-14T08:56:36.115Z,11.94
2023-05-14T08:59:05.084Z,12.04
2023-05-14T09:01:34.953Z,12.03
2023-05-14T09:04:07.245Z,12.05
2023-05-14T09:06:37.532Z,11.92
2023-05-14T09:09:06.011Z,12.01
2023-05-14T09:11:34.260Z,12.03
2023-05-14T09:14:02.594Z,11.11
2023-05-14T09:16:31.074Z,11.91
2023-05-14T09:19:00.878Z,11.99
2023-05-14T09:21:32.162Z,11.80
2023-05-14T09:24:01.728Z,11.98
2023-05-14T09:26:33.592Z,11.95
2023-05-14T09:29:03.550Z,12.14
2023-05-14T09:31:33.054Z,12.17
2023-05-14T09:34:02.753Z,12.20
2023-05-14T09:36:31.754Z,12.20
2023-05-14T09:39:00.007Z,11.44
2023-05-14T09:41:28.222Z,12.04
2023-05-14T09:43:57.451Z,12.21
2023-05-14T09:46:30.280Z,12.19
2023-05-14T09:48:58.661Z,12.05
2023-05-14T09:51:32.767Z,12.04
2023-05-14T09:54:01.940Z,12.17
2023-05-14T09:56:30.237Z,12.04
2023-05-14T09:58:58.436Z,12.25
2023-05-14T10:01:27.678Z,12.27
2023-05-14T10:03:56.366Z,11.88
2023-05-14T10:06:27.112Z,12.47
2023-05-14T10:08:58.735Z,12.63
2023-05-14T10:11:32.308Z,12.86
2023-05-14T10:14:05.248Z,12.94
2023-05-14T10:16:39.241Z,13.23
2023-05-14T10:19:10.578Z,13.46
2023-05-14T10:21:41.605Z,13.65
2023-05-14T10:24:12.775Z,13.67
2023-05-14T10:26:42.374Z,13.81
2023-05-14T10:29:11.996Z,13.85
2023-05-14T10:31:51.349Z,13.93
2023-05-14T10:34:38.871Z,13.83
2023-05-14T10:37:10.458Z,14.10
2023-05-14T10:39:47.544Z,14.04
2023-05-14T10:42:19.204Z,13.52
2023-05-14T10:44:53.833Z,13.99
2023-05-14T10:47:25.674Z,14.03
2023-05-14T10:49:55.803Z,13.83
2023-05-14T10:52:26.818Z,13.83
2023-05-14T10:54:58.515Z,13.57
2023-05-14T10:57:30.055Z,13.57
2023-05-14T11:00:00.034Z,13.67
2023-05-14T11:02:30.429Z,13.70
2023-05-14T11:05:03.736Z,13.70
2023-05-14T11:07:33.511Z,13.86
2023-05-14T11:10:05.367Z,13.84
2023-05-14T11:12:33.942Z,13.88
2023-05-14T11:15:04.067Z,13.91
2023-05-14T11:17:33.430Z,13.45
2023-05-14T11:20:01.721Z,13.91
2023-05-14T11:22:30.168Z,13.73
2023-05-14T11:24:58.794Z,13.56
2023-05-14T11:27:28.718Z,13.51
2023-05-14T11:29:58.197Z,13.39
2023-05-14T11:32:27.226Z,13.19
2023-05-14T11:34:56.058Z,13.22
2023-05-14T11:37:24.292Z,12.91
2023-05-14T11:39:53.732Z,13.04
2023-05-14T11:42:23.928Z,12.80
2023-05-14T11:44:55.306Z,12.65
2023-05-14T11:47:24.166Z,12.78
2023-05-14T11:49:52.395Z,12.74
2023-05-14T11:52:22.066Z,12.07
2023-05-14T11:54:51.056Z,12.35
2023-05-14T11:57:21.729Z,12.55
2023-05-14T11:59:56.920Z,12.69
2023-05-14T12:02:29.513Z,12.61
2023-05-14T12:04:58.703Z,12.61
2023-05-14T12:07:31.216Z,12.60
2023-05-14T12:10:02.734Z,12.28
2023-05-14T12:12:37.185Z,12.17
2023-05-14T12:15:13.713Z,12.59
2023-05-14T12:17:43.650Z,12.22
2023-05-14T12:20:13.716Z,12.81
2023-05-14T12:22:43.587Z,12.79
2023-05-14T12:25:14.458Z,12.84
2023-05-14T12:27:45.686Z,12.79
2023-05-14T12:32:49.090Z,12.71
2023-05-14T12:35:17.540Z,12.63
2023-05-14T12:37:45.845Z,12.55
2023-05-14T12:40:14.537Z,12.51
2023-05-14T12:42:42.878Z,12.45
2023-05-14T12:45:11.978Z,12.37
2023-05-14T12:47:40.198Z,12.33
2023-05-14T12:50:10.930Z,12.24
2023-05-14T12:52:39.989Z,11.82
2023-05-14T12:55:09.852Z,12.08
2023-05-14T12:57:39.488Z,12.02
2023-05-14T13:00:13.044Z,11.79
2023-05-14T13:02:43.975Z,12.01
2023-05-14T13:05:14.276Z,11.98
2023-05-14T13:07:42.738Z,11.78
2023-05-14T13:10:12.079Z,12.05
2023-05-14T13:12:40.605Z,11.60
2023-05-14T13:15:10.084Z,11.75
2023-05-14T13:17:38.469Z,10.52
2023-05-14T13:20:08.447Z,11.92
2023-05-14T13:22:38.134Z,11.96
2023-05-14T13:25:07.252Z,11.93
2023-05-14T13:27:37.005Z,11.98
2023-05-14T13:30:05.736Z,11.92
2023-05-14T13:32:34.086Z,11.93
2023-05-14T13:35:02.329Z,11.69
2023-05-14T13:37:30.601Z,11.57
2023-05-14T13:40:00.289Z,11.68
2023-05-14T13:42:28.549Z,11.79
2023-05-14T13:44:57.245Z,11.85
2023-05-14T13:47:25.573Z,11.88
2023-05-14T13:49:54.304Z,11.80
2023-05-14T13:52:22.986Z,11.67
2023-05-14T13:54:51.320Z,11.82
2023-05-14T13:57:21.581Z,11.84
2023-05-14T13:59:50.023Z,11.67
2023-05-14T14:02:18.308Z,11.13
2023-05-14T14:04:46.636Z,11.76
2023-05-14T14:07:14.906Z,11.89
2023-05-14T14:09:43.153Z,11.12
2023-05-14T14:12:11.856Z,8.87
2023-05-14T14:14:41.582Z,11.31
2023-05-14T14:17:10.097Z,11.61
2023-05-14T14:19:38.332Z,11.76
2023-05-14T14:22:06.708Z,11.46
2023-05-14T14:24:34.915Z,11.70
2023-05-14T14:27:03.242Z,11.76
2023-05-14T14:29:31.425Z,11.74
2023-05-14T14:32:01.243Z,11.40
2023-05-14T14:34:29.658Z,11.48
2023-05-14T14:36:57.928Z,11.77
2023-05-14T14:39:26.679Z,11.48
2023-05-14T14:41:54.954Z,11.80
2023-05-14T14:44:23.401Z,11.82
2023-05-14T14:46:51.652Z,11.81
2023-05-14T14:49:21.289Z,11.81
2023-05-14T14:51:49.548Z,11.91
2023-05-14T14:54:17.718Z,11.45
2023-05-14T14:56:46.111Z,11.92
2023-05-14T14:59:14.279Z,11.92
2023-05-14T15:01:42.600Z,11.57
2023-05-14T15:04:10.861Z,11.76
2023-05-14T15:06:40.625Z,11.92
2023-05-14T15:09:09.332Z,11.93
2023-05-14T15:11:37.816Z,11.97
2023-05-14T15:14:06.272Z,11.94
2023-05-14T15:16:34.546Z,11.83
2023-05-14T15:19:02.893Z,11.97
2023-05-14T15:21:32.066Z,12.08
2023-05-14T15:24:01.709Z,11.88
2023-05-14T15:26:29.932Z,11.96
2023-05-14T15:28:59.071Z,11.92
2023-05-14T15:31:27.457Z,12.03
2023-05-14T15:33:56.216Z,11.47
2023-05-14T15:36:24.413Z,12.06
2023-05-14T15:38:52.665Z,11.85
2023-05-14T15:41:22.865Z,12.01
2023-05-14T15:43:51.060Z,11.77
2023-05-14T15:46:19.359Z,11.87
2023-05-14T15:48:47.697Z,11.97
2023-05-14T15:51:16.116Z,11.74
2023-05-14T15:53:44.427Z,12.02
2023-05-14T15:56:12.734Z,12.00
2023-05-14T15:58:42.433Z,12.00
2023-05-14T16:01:10.694Z,12.00
2023-05-14T16:03:39.067Z,11.90
2023-05-14T16:06:08.051Z,11.90
2023-05-14T16:08:36.378Z,11.92
2023-05-14T16:11:04.812Z,11.92
2023-05-14T16:13:33.187Z,11.75
2023-05-14T16:16:02.991Z,11.79
2023-05-14T16:18:31.359Z,11.67
2023-05-14T16:20:59.535Z,11.76
2023-05-14T16:23:28.104Z,11.66
2023-05-14T16:25:56.447Z,11.69
2023-05-14T16:28:24.796Z,11.84
2023-05-14T16:30:53.068Z,11.82
2023-05-14T16:33:22.791Z,11.37
2023-05-14T16:35:51.433Z,11.86
2023-05-14T16:38:20.564Z,11.96
2023-05-14T16:40:48.829Z,11.94
2023-05-14T16:43:17.093Z,12.00
2023-05-14T16:45:45.504Z,11.47
2023-05-14T16:48:13.911Z,11.85
2023-05-14T16:50:43.684Z,11.98
2023-05-14T16:53:11.966Z,11.61
2023-05-14T16:55:40.333Z,12.01
2023-05-14T16:58:08.524Z,12.11
2023-05-14T17:00:36.726Z,12.15
2023-05-14T17:03:05.073Z,12.23
2023-05-14T17:05:33.572Z,12.24
2023-05-14T17:08:04.703Z,12.10
2023-05-14T17:10:33.444Z,12.25
2023-05-14T17:13:02.454Z,12.18
2023-05-14T17:15:31.057Z,12.09
2023-05-14T17:17:59.712Z,12.05
2023-05-14T17:20:28.782Z,12.00
2023-05-14T17:22:57.177Z,11.91
2023-05-14T17:25:27.199Z,11.85
2023-05-14T17:27:55.420Z,11.85
2023-05-14T17:30:23.691Z,11.93
2023-05-14T17:32:52.029Z,11.99
2023-05-14T17:35:20.415Z,11.97
2023-05-14T17:37:48.866Z,11.87
2023-05-14T17:40:17.081Z,11.93
2023-05-14T17:42:46.833Z,11.82
2023-05-14T17:45:15.744Z,11.82
2023-05-14T17:47:43.941Z,11.72
2023-05-14T17:50:12.471Z,11.78
2023-05-14T17:52:42.330Z,11.71
2023-05-14T17:55:10.859Z,11.61
2023-05-14T17:57:39.258Z,11.79
2023-05-14T18:00:10.165Z,11.80
2023-05-14T18:02:38.393Z,11.33
2023-05-14T18:05:07.636Z,11.64
2023-05-14T18:07:36.984Z,11.69
2023-05-14T18:10:05.631Z,11.64
2023-05-14T18:12:33.882Z,11.57
2023-05-14T18:15:02.221Z,11.60
2023-05-14T18:17:32.005Z,11.60
2023-05-14T18:20:00.322Z,11.46
2023-05-14T18:22:28.620Z,11.34
2023-05-14T18:27:44.675Z,11.66
2023-05-14T18:30:14.732Z,11.64
2023-05-14T18:32:45.738Z,11.60
2023-05-14T18:35:14.869Z,11.46
2023-05-14T18:37:43.223Z,11.50
2023-05-14T18:40:16.877Z,11.18
2023-05-14T18:42:47.134Z,9.55
2023-05-14T18:45:15.473Z,11.08
2023-05-14T18:47:45.383Z,11.23
2023-05-14T18:50:13.620Z,11.32
2023-05-14T18:52:41.866Z,11.32
2023-05-14T18:55:10.921Z,11.23
2023-05-14T18:57:39.350Z,10.83
2023-05-14T19:00:09.227Z,11.23
2023-05-14T19:02:37.577Z,11.25
2023-05-14T19:05:08.411Z,11.39
2023-05-14T19:07:37.999Z,11.40
2023-05-14T19:10:07.394Z,11.33
2023-05-14T19:12:35.677Z,11.07
2023-05-14T19:15:04.642Z,11.46
2023-05-14T19:17:33.587Z,10.97
2023-05-14T19:20:01.960Z,11.55
2023-05-14T19:22:31.654Z,11.53
2023-05-14T19:24:59.924Z,11.37
2023-05-14T19:27:28.326Z,11.36
2023-05-14T19:29:56.528Z,11.20
2023-05-14T19:32:24.836Z,11.26
2023-05-14T19:34:53.068Z,11.27
2023-05-14T19:37:21.468Z,11.32
2023-05-14T19:39:51.241Z,11.32
2023-05-14T19:42:19.618Z,11.10
2023-05-14T19:44:47.835Z,11.23
2023-05-14T19:47:16.414Z,11.18
2023-05-14T19:49:44.731Z,11.11
2023-05-14T19:52:12.959Z,11.15
2023-05-14T19:54:41.729Z,9.87
2023-05-14T19:57:12.246Z,11.22
2023-05-14T19:59:41.556Z,11.21
2023-05-14T20:02:12.506Z,11.23
2023-05-14T20:04:40.999Z,11.19
2023-05-14T20:07:10.202Z,11.15
2023-05-14T20:09:38.772Z,11.03
2023-05-14T20:12:07.785Z,11.08
2023-05-14T20:14:39.422Z,10.78
2023-05-14T20:17:07.807Z,11.06
2023-05-14T20:19:36.501Z,11.17
2023-05-14T20:22:04.756Z,11.11
2023-05-14T20:24:34.512Z,11.15
2023-05-14T20:27:28.664Z,11.08
2023-05-14T20:29:59.505Z,11.03
2023-05-14T20:32:27.700Z,11.13
2023-05-14T20:34:55.847Z,11.04
2023-05-14T20:37:25.586Z,10.54
2023-05-14T20:39:53.734Z,11.10
2023-05-14T20:42:22.002Z,11.03
2023-05-14T20:44:51.328Z,11.06
2023-05-14T20:47:23.256Z,9.66
2023-05-14T20:49:52.283Z,10.44
2023-05-14T20:52:20.598Z,10.63
2023-05-14T20:54:49.198Z,10.63
2023-05-14T20:57:17.757Z,10.96
2023-05-14T20:59:46.843Z,10.50
2023-05-14T21:02:15.328Z,10.84
2023-05-14T21:04:45.243Z,10.78
2023-05-14T21:07:13.482Z,10.86
2023-05-14T21:09:42.088Z,10.97
2023-05-14T21:12:11.214Z,10.95
2023-05-14T21:14:39.526Z,10.54
2023-05-14T21:17:08.222Z,10.91
2023-05-14T21:19:36.590Z,10.93
2023-05-14T21:22:06.701Z,10.92
2023-05-14T21:24:34.938Z,10.83
2023-05-14T21:27:03.513Z,10.75
2023-05-14T21:29:31.739Z,10.88
2023-05-14T21:32:00.157Z,10.84
2023-05-14T21:34:29.747Z,10.87
2023-05-14T21:36:59.282Z,10.77
2023-05-14T21:39:30.975Z,10.62
2023-05-14T21:42:00.234Z,10.88
2023-05-14T21:44:28.456Z,10.86
2023-05-14T21:46:57.039Z,10.81
2023-05-14T21:49:25.364Z,10.77
2023-05-14T21:51:55.262Z,10.85
2023-05-14T21:54:24.038Z,10.87
2023-05-14T21:56:53.737Z,10.63
2023-05-14T21:59:22.856Z,10.86
2023-05-14T22:02:06.294Z,10.83
2023-05-14T22:04:35.803Z,10.63
2023-05-14T22:07:03.982Z,10.96
2023-05-14T22:09:32.788Z,10.75
2023-05-14T22:12:02.469Z,10.33
2023-05-14T22:14:30.589Z,10.95
2023-05-14T22:16:58.873Z,10.94
2023-05-14T22:19:28.339Z,10.95
2023-05-14T22:21:57.034Z,10.74
2023-05-14T22:24:26.187Z,10.85
2023-05-14T22:26:54.795Z,10.93
2023-05-14T22:29:24.421Z,10.88
2023-05-14T22:31:52.805Z,10.91
2023-05-14T22:34:21.082Z,10.86
2023-05-14T22:36:49.307Z,10.78
2023-05-14T22:39:17.408Z,10.79
2023-05-14T22:41:45.940Z,10.72
2023-05-14T22:44:14.194Z,10.82
2023-05-14T22:46:43.868Z,10.91
2023-05-14T22:49:12.072Z,10.85
2023-05-14T22:51:40.396Z,10.88
2023-05-14T22:54:08.588Z,10.89
2023-05-14T22:56:37.229Z,10.79
2023-05-14T22:59:05.525Z,10.60
2023-05-14T23:01:33.849Z,10.69
2023-05-14T23:04:03.585Z,10.68
2023-05-14T23:06:32.250Z,10.71
2023-05-14T23:09:00.599Z,10.64
2023-05-14T23:11:28.850Z,10.63
2023-05-14T23:13:57.166Z,10.64
2023-05-14T23:16:26.086Z,10.63
2023-05-14T23:18:54.539Z,9.95
2023-05-14T23:21:24.383Z,10.64
2023-05-14T23:23:52.598Z,10.62
2023-05-14T23:26:21.683Z,10.71
2023-05-14T23:28:49.848Z,10.40
2023-05-14T23:31:18.045Z,10.75
2023-05-14T23:33:46.771Z,10.70
2023-05-14T23:36:15.050Z,10.67
2023-05-14T23:38:44.896Z,10.46
2023-05-14T23:41:13.095Z,10.57
2023-05-14T23:43:41.230Z,10.12
2023-05-14T23:46:09.522Z,10.70
2023-05-14T23:48:37.758Z,10.69
2023-05-14T23:51:05.953Z,10.68
2023-05-14T23:53:34.055Z,10.84
2023-05-14T23:56:03.729Z,10.03
2023-05-14T23:58:33.053Z,10.39
